createdAt,value
2023-04-02T00:11:27.291Z,85038.88
2023-04-02T00:19:41.162Z,85058.56
2023-04-02T00:24:59.907Z,85045.19
2023-04-02T00:33:15.494Z,85045.16
2023-04-02T00:44:27.310Z,85065.22
2023-04-02T01:06:22.279Z,85061.75
2023-04-02T01:17:17.440Z,85062.56
2023-04-02T01:22:53.025Z,85065.84
2023-04-02T01:44:46.928Z,85059.72
2023-04-02T01:47:23.813Z,85069.16
2023-04-02T02:14:44.881Z,85070.56
2023-04-02T02:22:42.947Z,85072.91
2023-04-02T02:27:53.886Z,85066.78
2023-04-02T02:30:24.958Z,85073.63
2023-04-02T02:35:35.837Z,85068.53
2023-04-02T02:38:12.879Z,85073.50
2023-04-02T02:43:26.124Z,85067.50
2023-04-02T02:45:53.549Z,85072.13
2023-04-02T02:53:59.026Z,85075.78
2023-04-02T02:59:11.648Z,85082.22
2023-04-02T03:01:40.285Z,85091.44
2023-04-02T03:06:54.149Z,85104.78
2023-04-02T03:14:50.923Z,85132.31
2023-04-02T03:17:34.815Z,85136.75
2023-04-02T03:20:03.287Z,85141.66
2023-04-02T03:28:06.464Z,85145.69
2023-04-02T03:30:36.839Z,85140.13
2023-04-02T03:33:06.088Z,85134.50
2023-04-02T03:35:46.185Z,85143.34
2023-04-02T03:38:25.751Z,85141.41
2023-04-02T03:41:11.108Z,85149.00
2023-04-02T03:46:35.192Z,85142.66
2023-04-02T03:49:13.094Z,85141.94
2023-04-02T04:02:54.252Z,85135.00
2023-04-02T04:05:26.029Z,85123.88
2023-04-02T04:11:08.640Z,85140.28
2023-04-02T04:13:36.315Z,85139.81
2023-04-02T04:16:09.668Z,85138.88
2023-04-02T04:21:27.744Z,85144.53
2023-04-02T04:26:51.906Z,85149.28
2023-04-02T04:29:25.641Z,85154.47
2023-04-02T04:31:51.778Z,85154.72
2023-04-02T04:34:17.952Z,85154.44
2023-04-02T04:36:44.089Z,85162.47
2023-04-02T04:39:10.213Z,85167.53
2023-04-02T04:41:36.333Z,85168.88
2023-04-02T04:44:02.447Z,85161.16
2023-04-02T04:46:28.647Z,85167.63
2023-04-02T04:48:54.791Z,85162.44
2023-04-02T04:51:20.905Z,85168.81
2023-04-02T04:53:47.032Z,85176.63
2023-04-02T04:56:19.246Z,85182.78
2023-04-02T04:58:45.961Z,85175.19
2023-04-02T05:01:12.227Z,85176.16
2023-04-02T05:03:38.380Z,85181.84
2023-04-02T05:06:04.493Z,85181.13
2023-04-02T05:08:30.630Z,85175.38
2023-04-02T05:10:56.747Z,85172.97
2023-04-02T05:13:22.878Z,85174.59
2023-04-02T05:15:48.995Z,85171.78
2023-04-02T05:18:15.121Z,85171.03
2023-04-02T05:20:41.223Z,85180.16
2023-04-02T05:23:07.321Z,85177.97
2023-04-02T05:25:33.612Z,85171.03
2023-04-02T05:27:59.823Z,85176.97
2023-04-02T05:30:26.022Z,85178.44
2023-04-02T05:32:52.186Z,85179.09
2023-04-02T05:35:18.384Z,85177.09
2023-04-02T05:37:44.537Z,85179.44
2023-04-02T05:40:10.659Z,85180.28
2023-04-02T05:42:36.774Z,85181.22
2023-04-02T05:45:02.850Z,85185.09
2023-04-02T05:47:28.996Z,85185.06
2023-04-02T05:49:55.116Z,85182.25
2023-04-02T05:52:21.232Z,85181.69
2023-04-02T05:54:47.372Z,85184.44
2023-04-02T05:57:13.494Z,85189.06
2023-04-02T05:59:39.626Z,85191.69
2023-04-02T06:02:05.781Z,85193.81
2023-04-02T06:04:31.911Z,85192.75
2023-04-02T06:06:58.044Z,85188.31
2023-04-02T06:09:24.215Z,85184.19
2023-04-02T06:11:50.375Z,85190.38
2023-04-02T06:14:16.479Z,85188.91
2023-04-02T06:16:42.675Z,85195.03
2023-04-02T06:19:08.830Z,85189.59
2023-04-02T06:21:34.918Z,85198.13
2023-04-02T06:24:01.051Z,85199.09
2023-04-02T06:26:27.188Z,85206.94
2023-04-02T06:28:53.291Z,85216.19
2023-04-02T06:31:19.511Z,85228.09
2023-04-02T06:33:45.659Z,85226.06
2023-04-02T06:36:11.805Z,85237.81
2023-04-02T06:38:37.992Z,85242.28
2023-04-02T06:41:04.116Z,85241.84
2023-04-02T06:43:30.219Z,85239.22
2023-04-02T06:45:56.343Z,85247.75
2023-04-02T06:48:22.488Z,85247.94
2023-04-02T06:50:48.613Z,85249.25
2023-04-02T06:53:14.763Z,85247.91
2023-04-02T06:55:40.930Z,85250.97
2023-04-02T06:58:07.102Z,85250.56
2023-04-02T07:00:33.232Z,85261.84
2023-04-02T07:02:59.380Z,85251.00
2023-04-02T07:05:25.529Z,85255.16
2023-04-02T07:07:51.758Z,85258.56
2023-04-02T07:10:17.904Z,85254.13
2023-04-02T07:12:44.052Z,85251.63
2023-04-02T07:15:10.149Z,85260.84
2023-04-02T07:17:36.502Z,85258.31
2023-04-02T07:20:02.602Z,85260.50
2023-04-02T07:22:28.755Z,85262.63
2023-04-02T07:24:54.860Z,85261.19
2023-04-02T07:27:20.970Z,85261.28
2023-04-02T07:29:47.090Z,85265.06
2023-04-02T07:32:13.201Z,85273.53
2023-04-02T07:34:39.343Z,85271.22
2023-04-02T07:37:05.429Z,85270.06
2023-04-02T07:39:31.573Z,85268.66
2023-04-02T07:41:57.675Z,85269.13
2023-04-02T07:44:23.784Z,85267.72
2023-04-02T07:46:49.996Z,85269.63
2023-04-02T07:49:16.132Z,85266.06
2023-04-02T07:51:42.276Z,85267.47
2023-04-02T07:54:08.365Z,85270.09
2023-04-02T07:56:34.501Z,85270.09
2023-04-02T07:59:00.621Z,85270.06
2023-04-02T08:01:26.746Z,85266.25
2023-04-02T08:03:54.441Z,85267.25
2023-04-02T08:06:20.895Z,85268.19
2023-04-02T08:08:47.027Z,85255.81
2023-04-02T08:11:13.172Z,85259.31
2023-04-02T08:13:39.317Z,85252.41
2023-04-02T08:16:05.403Z,85246.91
2023-04-02T08:18:31.523Z,85246.91
2023-04-02T08:20:57.617Z,85251.13
2023-04-02T08:23:23.708Z,85262.63
2023-04-02T08:25:49.821Z,85256.53
2023-04-02T08:28:15.948Z,85258.19
2023-04-02T08:30:42.241Z,85262.13
2023-04-02T08:33:08.449Z,85261.66
2023-04-02T08:35:34.981Z,85253.81
2023-04-02T08:38:01.401Z,85255.44
2023-04-02T08:40:27.633Z,85257.34
2023-04-02T08:42:53.810Z,85257.94
2023-04-02T08:45:25.076Z,85260.81
2023-04-02T08:48:04.397Z,85257.53
2023-04-02T08:50:30.497Z,85261.06
2023-04-02T08:52:56.619Z,85264.16
2023-04-02T08:55:22.761Z,85269.31
2023-04-02T08:57:48.911Z,85268.88
2023-04-02T09:00:15.027Z,85271.97
2023-04-02T09:02:41.198Z,85268.22
2023-04-02T09:05:07.467Z,85268.41
2023-04-02T09:07:33.857Z,85271.28
2023-04-02T09:09:59.971Z,85273.41
2023-04-02T09:12:26.140Z,85274.69
2023-04-02T09:14:52.252Z,85276.41
2023-04-02T09:17:18.357Z,85283.69
2023-04-02T09:19:44.526Z,85276.78
2023-04-02T09:22:10.659Z,85276.06
2023-04-02T09:24:36.777Z,85276.47
2023-04-02T09:27:02.955Z,85278.00
2023-04-02T09:29:29.113Z,85280.53
2023-04-02T09:31:55.271Z,85279.53
2023-04-02T09:34:21.382Z,85282.16
2023-04-02T09:36:47.511Z,85278.28
2023-04-02T09:39:13.645Z,85279.56
2023-04-02T09:41:39.733Z,85283.56
2023-04-02T09:44:05.870Z,85290.44
2023-04-02T09:46:32.053Z,85283.00
2023-04-02T09:48:58.208Z,85288.19
2023-04-02T09:51:24.336Z,85290.50
2023-04-02T09:53:50.448Z,85295.78
2023-04-02T09:56:16.592Z,85291.47
2023-04-02T09:58:42.732Z,85291.28
2023-04-02T10:01:08.896Z,85283.91
2023-04-02T10:03:35.069Z,85283.50
2023-04-02T10:06:01.192Z,85284.28
2023-04-02T10:08:27.314Z,85286.91
2023-04-02T10:10:53.506Z,85291.38
2023-04-02T10:13:19.659Z,85283.19
2023-04-02T10:15:45.799Z,85279.00
2023-04-02T10:18:11.956Z,85289.38
2023-04-02T10:20:48.689Z,85288.78
2023-04-02T10:23:17.294Z,85288.41
2023-04-02T10:25:43.412Z,85286.50
2023-04-02T10:28:09.553Z,85285.31
2023-04-02T10:30:35.761Z,85289.44
2023-04-02T10:33:01.937Z,85288.06
2023-04-02T10:35:28.124Z,85289.38
2023-04-02T10:37:54.375Z,85282.88
2023-04-02T10:40:20.485Z,85285.34
2023-04-02T10:42:46.604Z,85282.66
2023-04-02T10:45:12.701Z,85285.56
2023-04-02T10:47:38.814Z,85286.75
2023-04-02T10:50:04.976Z,85286.28
2023-04-02T10:52:31.110Z,85297.78
2023-04-02T10:54:57.281Z,85294.28
2023-04-02T10:57:23.460Z,85296.88
2023-04-02T10:59:49.688Z,85306.16
2023-04-02T11:02:15.819Z,85301.06
2023-04-02T11:04:41.976Z,85300.72
2023-04-02T11:07:14.394Z,85299.44
2023-04-02T11:09:41.047Z,85304.31
2023-04-02T11:12:07.144Z,85305.25
2023-04-02T11:14:33.232Z,85309.16
2023-04-02T11:16:59.376Z,85309.97
2023-04-02T11:19:25.479Z,85305.66
2023-04-02T11:21:58.562Z,85304.38
2023-04-02T11:24:26.583Z,85306.38
2023-04-02T11:26:52.726Z,85310.81
2023-04-02T11:29:18.948Z,85312.69
2023-04-02T11:31:45.095Z,85305.28
2023-04-02T11:34:11.307Z,85314.75
2023-04-02T11:36:37.425Z,85305.53
2023-04-02T11:39:14.605Z,85297.31
2023-04-02T11:41:43.055Z,85306.88
2023-04-02T11:44:09.234Z,85307.53
2023-04-02T11:46:35.419Z,85294.28
2023-04-02T11:49:01.669Z,85298.81
2023-04-02T11:51:27.833Z,85308.50
2023-04-02T11:53:54.128Z,85307.19
2023-04-02T11:56:20.284Z,85315.16
2023-04-02T11:58:46.386Z,85313.69
2023-04-02T12:01:12.473Z,85307.31
2023-04-02T12:03:38.631Z,85312.81
2023-04-02T12:06:04.753Z,85315.94
2023-04-02T12:08:30.842Z,85322.63
2023-04-02T12:10:56.987Z,85328.53
2023-04-02T12:13:23.151Z,85319.88
2023-04-02T12:15:49.274Z,85322.63
2023-04-02T12:18:15.373Z,85334.81
2023-04-02T12:20:41.534Z,85329.88
2023-04-02T12:23:07.689Z,85330.28
2023-04-02T12:25:33.833Z,85339.59
2023-04-02T12:27:59.952Z,85336.75
2023-04-02T12:30:26.089Z,85339.13
2023-04-02T12:32:52.268Z,85347.47
2023-04-02T12:35:18.472Z,85348.03
2023-04-02T12:37:44.569Z,85343.88
2023-04-02T12:40:10.670Z,85344.66
2023-04-02T12:42:36.781Z,85350.09
2023-04-02T12:45:02.898Z,85353.84
2023-04-02T12:47:29.055Z,85353.28
2023-04-02T12:49:55.441Z,85341.31
2023-04-02T12:55:18.709Z,85357.38
2023-04-02T12:57:58.171Z,85344.31
2023-04-02T13:03:27.248Z,85346.59
2023-04-02T13:05:56.769Z,85343.09
2023-04-02T13:08:26.277Z,85358.13
2023-04-02T13:16:30.080Z,85337.22
2023-04-02T13:19:07.931Z,85342.97
2023-04-02T13:24:18.306Z,85333.34
2023-04-02T13:26:45.001Z,85338.47
2023-04-02T13:29:11.152Z,85352.34
2023-04-02T13:31:37.325Z,85344.94
2023-04-02T13:34:03.719Z,85346.38
2023-04-02T13:36:29.854Z,85348.00
2023-04-02T13:38:57.595Z,85351.41
2023-04-02T13:41:24.005Z,85351.72
2023-04-02T13:43:57.827Z,85354.81
2023-04-02T13:46:28.676Z,85362.44
2023-04-02T13:51:37.229Z,85369.75
2023-04-02T13:54:06.022Z,85369.16
2023-04-02T13:56:39.614Z,85365.84
2023-04-02T14:04:54.345Z,85370.72
2023-04-02T14:16:02.338Z,85361.53
2023-04-02T14:21:29.279Z,85357.28
2023-04-02T14:32:32.292Z,85349.13
2023-04-02T14:40:39.736Z,85342.81
2023-04-02T14:43:05.925Z,85350.44
2023-04-02T14:45:32.066Z,85350.38
2023-04-02T14:47:58.190Z,85358.66
2023-04-02T14:50:24.315Z,85356.13
2023-04-02T14:52:50.468Z,85352.31
2023-04-02T14:55:16.626Z,85350.13
2023-04-02T14:57:42.771Z,85350.44
2023-04-02T15:00:08.901Z,85343.22
2023-04-02T15:02:35.047Z,85345.78
2023-04-02T15:05:01.731Z,85341.56
2023-04-02T15:07:27.990Z,85339.22
2023-04-02T15:09:54.147Z,85340.34
2023-04-02T15:12:20.313Z,85338.59
2023-04-02T15:14:46.457Z,85335.22
2023-04-02T15:17:12.623Z,85331.88
2023-04-02T15:19:38.745Z,85330.03
2023-04-02T15:22:08.860Z,85327.56
2023-04-02T15:24:35.557Z,85327.72
2023-04-02T15:27:02.035Z,85333.81
2023-04-02T15:29:29.721Z,85330.28
2023-04-02T15:31:55.969Z,85345.16
2023-04-02T15:34:22.155Z,85341.41
2023-04-02T15:36:48.256Z,85354.03
2023-04-02T15:39:14.381Z,85345.28
2023-04-02T15:41:40.535Z,85351.47
2023-04-02T15:44:06.674Z,85349.47
2023-04-02T15:46:32.793Z,85355.50
2023-04-02T15:48:58.982Z,85354.38
2023-04-02T15:51:25.110Z,85362.88
2023-04-02T15:53:51.193Z,85369.41
2023-04-02T15:56:17.362Z,85365.09
2023-04-02T15:58:43.487Z,85371.72
2023-04-02T16:01:09.678Z,85376.19
2023-04-02T16:03:35.824Z,85376.44
2023-04-02T16:06:01.968Z,85381.66
2023-04-02T16:08:28.107Z,85378.63
2023-04-02T16:10:54.252Z,85399.56
2023-04-02T16:13:20.395Z,85395.47
2023-04-02T16:15:46.484Z,85399.50
2023-04-02T16:18:12.674Z,85404.72
2023-04-02T16:20:38.910Z,85406.47
2023-04-02T16:23:05.018Z,85419.03
2023-04-02T16:25:34.489Z,85411.41
2023-04-02T16:28:01.762Z,85413.56
2023-04-02T16:30:27.904Z,85426.94
2023-04-02T16:32:54.106Z,85422.34
2023-04-02T16:35:40.896Z,85434.94
2023-04-02T16:38:06.378Z,85430.44
2023-04-02T16:40:32.685Z,85441.84
2023-04-02T16:42:58.823Z,85450.16
2023-04-02T16:45:24.936Z,85440.13
2023-04-02T16:47:51.117Z,85450.16
2023-04-02T16:50:19.462Z,85451.31
2023-04-02T16:52:51.313Z,85450.25
2023-04-02T16:55:17.442Z,85459.63
2023-04-02T16:57:43.549Z,85461.53
2023-04-02T17:00:09.671Z,85468.91
2023-04-02T17:02:35.885Z,85473.16
2023-04-02T17:05:02.186Z,85476.00
2023-04-02T17:07:28.330Z,85482.88
2023-04-02T17:09:54.447Z,85480.41
2023-04-02T17:12:20.591Z,85489.47
2023-04-02T17:14:46.757Z,85491.16
2023-04-02T17:17:12.967Z,85499.28
2023-04-02T17:19:39.107Z,85508.28
2023-04-02T17:22:05.232Z,85508.03
2023-04-02T17:24:31.368Z,85507.53
2023-04-02T17:26:57.548Z,85516.25
2023-04-02T17:29:23.668Z,85518.88
2023-04-02T17:31:49.855Z,85516.75
2023-04-02T17:36:42.142Z,85522.28
2023-04-02T17:39:08.268Z,85525.56
2023-04-02T17:41:34.421Z,85523.44
2023-04-02T17:44:00.578Z,85529.59
2023-04-02T17:46:26.843Z,85533.19
2023-04-02T17:48:53.219Z,85530.97
2023-04-02T17:51:19.336Z,85536.47
2023-04-02T17:53:45.468Z,85540.50
2023-04-02T17:56:11.605Z,85543.13
2023-04-02T17:58:37.744Z,85549.03
2023-04-02T18:01:03.907Z,85549.25
2023-04-02T18:03:30.193Z,85552.34
2023-04-02T18:05:56.432Z,85552.59
2023-04-02T18:08:22.607Z,85556.41
2023-04-02T18:10:48.749Z,85551.91
2023-04-02T18:13:14.908Z,85554.03
2023-04-02T18:15:41.104Z,85556.16
2023-04-02T18:18:11.828Z,85561.38
2023-04-02T18:20:43.115Z,85560.44
2023-04-02T18:39:46.108Z,85579.38
2023-04-02T18:42:12.264Z,85577.91
2023-04-02T18:47:18.502Z,85583.41
2023-04-02T18:49:44.631Z,85588.91
2023-04-02T18:52:10.773Z,85592.44
2023-04-02T18:54:36.885Z,85595.09
2023-04-02T18:57:03.001Z,85594.63
2023-04-02T18:59:29.149Z,85593.66
2023-04-02T19:01:55.284Z,85595.09
2023-04-02T19:04:21.419Z,85603.59
2023-04-02T19:06:55.778Z,85605.03
2023-04-02T19:09:21.904Z,85607.19
2023-04-02T19:11:50.378Z,85609.28
2023-04-02T19:16:57.274Z,85605.72
2023-04-02T19:19:23.398Z,85614.03
2023-04-02T19:21:49.527Z,85616.91
2023-04-02T19:24:15.658Z,85609.31
2023-04-02T19:26:41.791Z,85625.47
2023-04-02T19:29:07.920Z,85614.78
2023-04-02T19:31:34.144Z,85623.03
2023-04-02T19:36:51.101Z,85634.66
2023-04-02T19:39:17.219Z,85632.50
2023-04-02T19:41:43.329Z,85631.13
2023-04-02T19:44:11.276Z,85633.00
2023-04-02T19:46:38.036Z,85625.19
2023-04-02T19:49:04.203Z,85634.41
2023-04-02T19:51:30.309Z,85628.97
2023-04-02T19:53:56.407Z,85636.34
2023-04-02T19:56:22.570Z,85634.44
2023-04-02T19:58:48.698Z,85628.03
2023-04-02T20:01:14.852Z,85636.34
2023-04-02T20:03:41.019Z,85633.94
2023-04-02T20:06:07.131Z,85635.84
2023-04-02T20:08:33.241Z,85633.25
2023-04-02T20:10:59.431Z,85632.53
2023-04-02T20:13:25.613Z,85638.47
2023-04-02T20:15:51.723Z,85632.75
2023-04-02T20:18:17.851Z,85637.28
2023-04-02T20:20:43.971Z,85636.78
2023-04-02T20:23:10.082Z,85636.09
2023-04-02T20:25:36.206Z,85637.06
2023-04-02T20:28:02.330Z,85635.84
2023-04-02T20:30:28.431Z,85634.91
2023-04-02T20:32:54.595Z,85642.72
2023-04-02T20:35:20.848Z,85634.88
2023-04-02T20:37:46.994Z,85645.31
2023-04-02T20:40:13.137Z,85644.81
2023-04-02T20:42:39.358Z,85642.63
2023-04-02T20:45:05.506Z,85651.34
2023-04-02T20:47:31.683Z,85660.19
2023-04-02T20:49:57.848Z,85652.38
2023-04-02T20:52:23.958Z,85659.19
2023-04-02T20:54:50.066Z,85660.81
2023-04-02T20:57:16.231Z,85661.69
2023-04-02T20:59:42.488Z,85669.38
2023-04-02T21:02:08.604Z,85665.59
2023-04-02T21:04:34.725Z,85677.63
2023-04-02T21:07:00.867Z,85668.34
2023-04-02T21:09:27.019Z,85682.56
2023-04-02T21:11:53.174Z,85673.59
2023-04-02T21:14:19.388Z,85678.94
2023-04-02T21:16:45.520Z,85684.63
2023-04-02T21:19:11.671Z,85676.09
2023-04-02T21:21:37.787Z,85681.81
2023-04-02T21:24:03.898Z,85674.25
2023-04-02T21:26:30.594Z,85677.06
2023-04-02T21:28:57.426Z,85674.72
2023-04-02T21:31:23.606Z,85670.22
2023-04-02T21:33:49.788Z,85680.63
2023-04-02T21:36:15.977Z,85677.28
2023-04-02T21:38:42.130Z,85679.38
2023-04-02T21:41:08.273Z,85682.97
2023-04-02T21:43:34.372Z,85680.56
2023-04-02T21:46:00.481Z,85684.25
2023-04-02T21:48:26.638Z,85682.06
2023-04-02T21:50:52.781Z,85685.63
2023-04-02T22:07:16.997Z,85691.59
2023-04-02T22:09:43.140Z,85689.75
2023-04-02T22:12:09.252Z,85697.41
2023-04-02T22:14:35.388Z,85697.13
2023-04-02T22:17:01.680Z,85704.88
2023-04-02T22:19:27.965Z,85700.94
2023-04-02T22:21:54.084Z,85702.09
2023-04-02T22:24:20.225Z,85699.78
2023-04-02T22:26:46.381Z,85697.31
2023-04-02T22:29:12.551Z,85696.59
2023-04-02T22:31:38.696Z,85697.78
2023-04-02T22:34:04.823Z,85693.53
2023-04-02T22:36:30.980Z,85696.84
2023-04-02T22:38:57.108Z,85698.97
2023-04-02T22:41:23.237Z,85698.47
2023-04-02T22:43:49.340Z,85699.19
2023-04-02T22:46:15.482Z,85700.19
2023-04-02T22:48:41.644Z,85696.69
2023-04-02T22:51:07.814Z,85702.84
2023-04-02T22:53:33.953Z,85698.56
2023-04-02T22:56:00.118Z,85697.38
2023-04-02T22:58:26.254Z,85696.50
2023-04-02T23:00:52.387Z,85698.44
2023-04-02T23:03:18.518Z,85696.50
2023-04-02T23:08:34.929Z,85697.16
2023-04-02T23:27:55.313Z,85678.13
2023-04-02T23:30:23.322Z,85671.06
2023-04-02T23:32:49.458Z,85681.00
2023-04-02T23:35:15.549Z,85673.59
2023-04-02T23:37:41.655Z,85675.03
2023-04-02T23:40:08.007Z,85673.84
2023-04-02T23:42:34.109Z,85676.00
2023-04-02T23:45:00.260Z,85681.31
2023-04-02T23:47:26.459Z,85671.59
2023-04-02T23:49:52.596Z,85667.34
2023-04-02T23:52:18.728Z,85669.94
2023-04-02T23:54:44.858Z,85662.19
